sensor_id;sensor_type;location;lat;lon;timestamp;pressure;altitude;pressure_sealevel;temperature;humidity
75794;BME280;64418;47.536;19.074;2024-03-23T00:54:25;100009.59;;;7.60;100.00
75794;BME280;64418;47.536;19.074;2024-03-23T00:56:51;100005.63;;;7.56;100.00
75794;BME280;64418;47.536;19.074;2024-03-23T00:59:17;100001.44;;;7.47;100.00
75794;BME280;64418;47.536;19.074;2024-03-23T01:01:43;99997.06;;;7.46;100.00
75794;BME280;64418;47.536;19.074;2024-03-23T01:04:09;99994.37;;;7.46;100.00
75794;BME280;64418;47.536;19.074;2024-03-23T01:06:37;99995.38;;;7.45;100.00
75794;BME280;64418;47.536;19.074;2024-03-23T01:09:04;99977.50;;;7.38;100.00
75794;BME280;64418;47.536;19.074;2024-03-23T01:11:30;99973.75;;;7.32;100.00
75794;BME280;64418;47.536;19.074;2024-03-23T01:13:56;99982.06;;;7.37;100.00
75794;BME280;64418;47.536;19.074;2024-03-23T01:16:21;99976.66;;;7.37;100.00
75794;BME280;64418;47.536;19.074;2024-03-23T01:18:47;99985.00;;;7.42;100.00
75794;BME280;64418;47.536;19.074;2024-03-23T01:21:14;99967.38;;;7.40;100.00
75794;BME280;64418;47.536;19.074;2024-03-23T01:23:42;99965.13;;;7.43;100.00
75794;BME280;64418;47.536;19.074;2024-03-23T01:26:08;99961.38;;;7.44;100.00
75794;BME280;64418;47.536;19.074;2024-03-23T01:28:33;99935.62;;;7.35;100.00
75794;BME280;64418;47.536;19.074;2024-03-23T01:30:59;99958.50;;;7.46;100.00
75794;BME280;64418;47.536;19.074;2024-03-23T01:33:25;99959.72;;;7.43;100.00
75794;BME280;64418;47.536;19.074;2024-03-23T01:35:51;99960.06;;;7.34;100.00
75794;BME280;64418;47.536;19.074;2024-03-23T01:38:17;99953.78;;;7.26;100.00
75794;BME280;64418;47.536;19.074;2024-03-23T01:40:45;99966.19;;;7.21;100.00
75794;BME280;64418;47.536;19.074;2024-03-23T01:43:11;99970.66;;;7.14;100.00
75794;BME280;64418;47.536;19.074;2024-03-23T01:45:37;99965.28;;;7.14;100.00
75794;BME280;64418;47.536;19.074;2024-03-23T01:48:04;99956.19;;;7.15;100.00
75794;BME280;64418;47.536;19.074;2024-03-23T01:50:31;99947.53;;;7.19;100.00
75794;BME280;64418;47.536;19.074;2024-03-23T01:52:58;99934.25;;;7.18;100.00
75794;BME280;64418;47.536;19.074;2024-03-23T01:55:24;99950.47;;;7.24;100.00
75794;BME280;64418;47.536;19.074;2024-03-23T01:57:53;99946.50;;;7.20;100.00
75794;BME280;64418;47.536;19.074;2024-03-23T02:00:22;99952.34;;;7.24;100.00
75794;BME280;64418;47.536;19.074;2024-03-23T02:02:48;99948.75;;;7.17;100.00
75794;BME280;64418;47.536;19.074;2024-03-23T02:05:15;99942.94;;;7.13;100.00
75794;BME280;64418;47.536;19.074;2024-03-23T02:07:41;99942.53;;;7.16;100.00
75794;BME280;64418;47.536;19.074;2024-03-23T02:10:08;99941.44;;;7.11;100.00
75794;BME280;64418;47.536;19.074;2024-03-23T02:12:34;99931.53;;;7.18;100.00
75794;BME280;64418;47.536;19.074;2024-03-23T02:15:03;99932.59;;;7.17;100.00
75794;BME280;64418;47.536;19.074;2024-03-23T02:17:30;99930.47;;;7.12;100.00
75794;BME280;64418;47.536;19.074;2024-03-23T02:19:56;99928.19;;;7.09;100.00
75794;BME280;64418;47.536;19.074;2024-03-23T02:22:22;99922.72;;;7.03;100.00
75794;BME280;64418;47.536;19.074;2024-03-23T02:24:51;99903.13;;;6.88;100.00
75794;BME280;64418;47.536;19.074;2024-03-23T02:27:17;99922.22;;;6.93;100.00
75794;BME280;64418;47.536;19.074;2024-03-23T02:29:46;99914.59;;;6.96;100.00
75794;BME280;64418;47.536;19.074;2024-03-23T02:32:18;99913.66;;;7.38;100.00
75794;BME280;64418;47.536;19.074;2024-03-23T02:34:44;99918.25;;;7.44;100.00
75794;BME280;64418;47.536;19.074;2024-03-23T02:37:11;99903.56;;;7.47;100.00
75794;BME280;64418;47.536;19.074;2024-03-23T02:39:37;99908.75;;;7.48;100.00
75794;BME280;64418;47.536;19.074;2024-03-23T02:42:05;99894.66;;;7.46;100.00
75794;BME280;64418;47.536;19.074;2024-03-23T02:44:32;99896.78;;;7.57;100.00
75794;BME280;64418;47.536;19.074;2024-03-23T02:46:58;99886.84;;;7.58;100.00
75794;BME280;64418;47.536;19.074;2024-03-23T02:49:25;99890.81;;;7.62;100.00
75794;BME280;64418;47.536;19.074;2024-03-23T02:51:51;99884.75;;;7.53;100.00
75794;BME280;64418;47.536;19.074;2024-03-23T02:54:17;99892.56;;;7.48;100.00
75794;BME280;64418;47.536;19.074;2024-03-23T02:56:43;99889.03;;;7.48;100.00
75794;BME280;64418;47.536;19.074;2024-03-23T02:59:10;99882.59;;;7.42;100.00
75794;BME280;64418;47.536;19.074;2024-03-23T03:01:37;99877.63;;;7.39;100.00
75794;BME280;64418;47.536;19.074;2024-03-23T03:04:02;99884.28;;;7.43;100.00
75794;BME280;64418;47.536;19.074;2024-03-23T03:06:31;99855.97;;;7.26;100.00
75794;BME280;64418;47.536;19.074;2024-03-23T03:08:57;99873.13;;;7.53;100.00
75794;BME280;64418;47.536;19.074;2024-03-23T03:11:23;99866.63;;;7.41;100.00
75794;BME280;64418;47.536;19.074;2024-03-23T03:13:49;99861.88;;;7.43;100.00
75794;BME280;64418;47.536;19.074;2024-03-23T03:16:18;99871.41;;;7.45;100.00
75794;BME280;64418;47.536;19.074;2024-03-23T03:18:43;99867.69;;;7.46;100.00
75794;BME280;64418;47.536;19.074;2024-03-23T03:21:09;99874.13;;;7.45;100.00
75794;BME280;64418;47.536;19.074;2024-03-23T03:23:35;99863.34;;;7.45;100.00
75794;BME280;64418;47.536;19.074;2024-03-23T03:26:01;99874.75;;;7.47;100.00
75794;BME280;64418;47.536;19.074;2024-03-23T03:28:28;99868.53;;;7.47;100.00
75794;BME280;64418;47.536;19.074;2024-03-23T03:30:54;99867.28;;;7.43;100.00
75794;BME280;64418;47.536;19.074;2024-03-23T03:33:21;99871.81;;;7.42;100.00
75794;BME280;64418;47.536;19.074;2024-03-23T03:35:47;99865.78;;;7.40;100.00
75794;BME280;64418;47.536;19.074;2024-03-23T03:38:14;99859.78;;;7.38;100.00
75794;BME280;64418;47.536;19.074;2024-03-23T03:40:39;99858.31;;;7.36;100.00
75794;BME280;64418;47.536;19.074;2024-03-23T03:43:07;99856.03;;;7.33;100.00
75794;BME280;64418;47.536;19.074;2024-03-23T03:45:33;99852.88;;;7.29;100.00
75794;BME280;64418;47.536;19.074;2024-03-23T03:47:59;99860.62;;;7.39;100.00
75794;BME280;64418;47.536;19.074;2024-03-23T03:50:28;99826.41;;;7.33;100.00
75794;BME280;64418;47.536;19.074;2024-03-23T03:52:54;99857.13;;;7.45;100.00
75794;BME280;64418;47.536;19.074;2024-03-23T03:55:20;99849.88;;;7.45;100.00
75794;BME280;64418;47.536;19.074;2024-03-23T03:57:46;99848.44;;;7.49;100.00
75794;BME280;64418;47.536;19.074;2024-03-23T04:00:13;99846.16;;;7.46;100.00
75794;BME280;64418;47.536;19.074;2024-03-23T04:02:40;99846.97;;;7.47;100.00
75794;BME280;64418;47.536;19.074;2024-03-23T04:05:07;99841.37;;;7.48;100.00
75794;BME280;64418;47.536;19.074;2024-03-23T04:07:34;99840.78;;;7.53;100.00
75794;BME280;64418;47.536;19.074;2024-03-23T04:10:01;99844.56;;;7.58;100.00
75794;BME280;64418;47.536;19.074;2024-03-23T04:12:27;99835.41;;;7.59;100.00
75794;BME280;64418;47.536;19.074;2024-03-23T04:14:52;99844.56;;;7.58;100.00
75794;BME280;64418;47.536;19.074;2024-03-23T04:17:19;99841.63;;;7.60;100.00
75794;BME280;64418;47.536;19.074;2024-03-23T04:19:45;99836.69;;;7.63;100.00
75794;BME280;64418;47.536;19.074;2024-03-23T04:22:11;99836.69;;;7.63;100.00
75794;BME280;64418;47.536;19.074;2024-03-23T04:24:39;99821.72;;;7.54;100.00
75794;BME280;64418;47.536;19.074;2024-03-23T04:27:05;99831.28;;;7.63;100.00
75794;BME280;64418;47.536;19.074;2024-03-23T04:29:31;99824.88;;;7.64;100.00
75794;BME280;64418;47.536;19.074;2024-03-23T04:31:57;99832.13;;;7.64;100.00
75794;BME280;64418;47.536;19.074;2024-03-23T04:34:23;99826.13;;;7.62;100.00
75794;BME280;64418;47.536;19.074;2024-03-23T04:36:49;99826.72;;;7.57;100.00
75794;BME280;64418;47.536;19.074;2024-03-23T04:39:15;99824.25;;;7.62;100.00
75794;BME280;64418;47.536;19.074;2024-03-23T04:41:42;99823.41;;;7.62;100.00
75794;BME280;64418;47.536;19.074;2024-03-23T04:44:08;99825.91;;;7.63;100.00
75794;BME280;64418;47.536;19.074;2024-03-23T04:46:35;99832.53;;;7.61;100.00
75794;BME280;64418;47.536;19.074;2024-03-23T04:49:01;99829.16;;;7.52;100.00
75794;BME280;64418;47.536;19.074;2024-03-23T04:51:27;99829.41;;;7.57;100.00
75794;BME280;64418;47.536;19.074;2024-03-23T04:53:53;99832.50;;;7.54;100.00
75794;BME280;64418;47.536;19.074;2024-03-23T04:56:19;99827.94;;;7.55;100.00
75794;BME280;64418;47.536;19.074;2024-03-23T04:58:47;99821.31;;;7.57;100.00
75794;BME280;64418;47.536;19.074;2024-03-23T05:01:13;99823.00;;;7.58;100.00
75794;BME280;64418;47.536;19.074;2024-03-23T05:03:41;99813.03;;;7.59;100.00
75794;BME280;64418;47.536;19.074;2024-03-23T05:06:07;99820.50;;;7.63;100.00
75794;BME280;64418;47.536;19.074;2024-03-23T05:08:33;99817.44;;;7.66;100.00
75794;BME280;64418;47.536;19.074;2024-03-23T05:10:59;99819.72;;;7.69;100.00
75794;BME280;64418;47.536;19.074;2024-03-23T05:13:26;99818.47;;;7.72;100.00
75794;BME280;64418;47.536;19.074;2024-03-23T05:15:54;99811.84;;;7.74;100.00
75794;BME280;64418;47.536;19.074;2024-03-23T05:18:22;99814.97;;;7.78;100.00
75794;BME280;64418;47.536;19.074;2024-03-23T05:20:48;99818.91;;;7.82;100.00
75794;BME280;64418;47.536;19.074;2024-03-23T05:23:14;99808.13;;;7.82;100.00
75794;BME280;64418;47.536;19.074;2024-03-23T05:25:40;99810.66;;;7.90;100.00
75794;BME280;64418;47.536;19.074;2024-03-23T05:28:06;99818.53;;;7.92;100.00
75794;BME280;64418;47.536;19.074;2024-03-23T05:30:33;99811.50;;;7.97;100.00
75794;BME280;64418;47.536;19.074;2024-03-23T05:33:01;99810.28;;;8.00;100.00
75794;BME280;64418;47.536;19.074;2024-03-23T05:35:28;99809.44;;;8.06;100.00
75794;BME280;64418;47.536;19.074;2024-03-23T05:37:53;99809.03;;;8.09;100.00
75794;BME280;64418;47.536;19.074;2024-03-23T05:40:20;99812.38;;;8.11;100.00
75794;BME280;64418;47.536;19.074;2024-03-23T05:42:46;99811.13;;;8.13;100.00
75794;BME280;64418;47.536;19.074;2024-03-23T05:45:12;99802.00;;;8.14;100.00
75794;BME280;64418;47.536;19.074;2024-03-23T05:47:38;99799.31;;;8.21;100.00
75794;BME280;64418;47.536;19.074;2024-03-23T05:50:06;99799.53;;;8.26;100.00
75794;BME280;64418;47.536;19.074;2024-03-23T05:52:32;99794.13;;;8.26;100.00
75794;BME280;64418;47.536;19.074;2024-03-23T05:54:58;99793.56;;;8.37;100.00
75794;BME280;64418;47.536;19.074;2024-03-23T05:57:25;99800.81;;;8.43;100.00
75794;BME280;64418;47.536;19.074;2024-03-23T05:59:51;99780.25;;;8.42;100.00
75794;BME280;64418;47.536;19.074;2024-03-23T06:02:17;99797.91;;;8.51;100.00
75794;BME280;64418;47.536;19.074;2024-03-23T06:04:45;99798.75;;;8.58;100.00
75794;BME280;64418;47.536;19.074;2024-03-23T06:07:15;99803.31;;;8.64;100.00
75794;BME280;64418;47.536;19.074;2024-03-23T06:09:42;99799.16;;;8.82;100.00
75794;BME280;64418;47.536;19.074;2024-03-23T06:12:09;99796.19;;;9.03;100.00
75794;BME280;64418;47.536;19.074;2024-03-23T06:14:36;99796.63;;;9.00;100.00
75794;BME280;64418;47.536;19.074;2024-03-23T06:17:03;99783.62;;;9.41;100.00
75794;BME280;64418;47.536;19.074;2024-03-23T06:19:29;99783.19;;;9.51;100.00
75794;BME280;64418;47.536;19.074;2024-03-23T06:21:55;99768.22;;;9.48;100.00
75794;BME280;64418;47.536;19.074;2024-03-23T06:24:23;99774.41;;;9.62;100.00
75794;BME280;64418;47.536;19.074;2024-03-23T06:26:49;99765.37;;;9.75;100.00
75794;BME280;64418;47.536;19.074;2024-03-23T06:29:15;99762.31;;;9.64;100.00
75794;BME280;64418;47.536;19.074;2024-03-23T06:31:41;99756.47;;;9.67;100.00
75794;BME280;64418;47.536;19.074;2024-03-23T06:34:07;99749.59;;;9.72;100.00
75794;BME280;64418;47.536;19.074;2024-03-23T06:36:34;99736.69;;;9.74;100.00
75794;BME280;64418;47.536;19.074;2024-03-23T06:39:00;99741.47;;;9.72;100.00
75794;BME280;64418;47.536;19.074;2024-03-23T06:41:28;99755.38;;;9.82;100.00
75794;BME280;64418;47.536;19.074;2024-03-23T06:43:54;99752.88;;;9.80;100.00
75794;BME280;64418;47.536;19.074;2024-03-23T06:46:21;99748.94;;;9.76;100.00
75794;BME280;64418;47.536;19.074;2024-03-23T06:48:47;99772.22;;;9.84;100.00
75794;BME280;64418;47.536;19.074;2024-03-23T06:51:13;99764.56;;;10.12;100.00
75794;BME280;64418;47.536;19.074;2024-03-23T06:53:39;99769.59;;;10.02;100.00
75794;BME280;64418;47.536;19.074;2024-03-23T06:56:05;99769.12;;;10.11;100.00
75794;BME280;64418;47.536;19.074;2024-03-23T06:58:33;99763.75;;;10.05;100.00
75794;BME280;64418;47.536;19.074;2024-03-23T07:00:59;99740.38;;;10.17;100.00
75794;BME280;64418;47.536;19.074;2024-03-23T07:03:24;99753.97;;;10.35;100.00
75794;BME280;64418;47.536;19.074;2024-03-23T07:05:53;99757.06;;;10.39;100.00
75794;BME280;64418;47.536;19.074;2024-03-23T07:08:23;99753.97;;;10.42;100.00
75794;BME280;64418;47.536;19.074;2024-03-23T07:10:49;99753.56;;;10.38;100.00
75794;BME280;64418;47.536;19.074;2024-03-23T07:13:17;99723.06;;;10.49;100.00
75794;BME280;64418;47.536;19.074;2024-03-23T07:15:51;99753.03;;;10.97;100.00
75794;BME280;64418;47.536;19.074;2024-03-23T07:18:17;99738.00;;;11.49;100.00
75794;BME280;64418;47.536;19.074;2024-03-23T07:20:45;99737.56;;;11.71;100.00
75794;BME280;64418;47.536;19.074;2024-03-23T07:23:17;99737.53;;;12.30;100.00
75794;BME280;64418;47.536;19.074;2024-03-23T07:25:43;99734.25;;;12.75;100.00
75794;BME280;64418;47.536;19.074;2024-03-23T07:28:09;99727.97;;;13.09;100.00
75794;BME280;64418;47.536;19.074;2024-03-23T07:30:35;99734.47;;;12.85;100.00
75794;BME280;64418;47.536;19.074;2024-03-23T07:33:04;99726.69;;;12.77;100.00
75794;BME280;64418;47.536;19.074;2024-03-23T07:35:31;99714.19;;;12.87;100.00
75794;BME280;64418;47.536;19.074;2024-03-23T07:37:57;99715.59;;;12.90;100.00
75794;BME280;64418;47.536;19.074;2024-03-23T07:40:24;99711.47;;;12.64;100.00
75794;BME280;64418;47.536;19.074;2024-03-23T07:42:52;99710.84;;;12.74;100.00
75794;BME280;64418;47.536;19.074;2024-03-23T07:45:19;99696.69;;;12.48;100.00
75794;BME280;64418;47.536;19.074;2024-03-23T07:48:08;99670.69;;;12.52;100.00
75794;BME280;64418;47.536;19.074;2024-03-23T07:50:35;99689.81;;;12.81;100.00
75794;BME280;64418;47.536;19.074;2024-03-23T07:53:01;99690.06;;;12.91;100.00
75794;BME280;64418;47.536;19.074;2024-03-23T07:55:27;99691.69;;;12.92;100.00
75794;BME280;64418;47.536;19.074;2024-03-23T07:57:53;99687.69;;;12.60;100.00
75794;BME280;64418;47.536;19.074;2024-03-23T08:00:18;99686.38;;;12.50;100.00
75794;BME280;64418;47.536;19.074;2024-03-23T08:02:44;99684.62;;;12.56;100.00
75794;BME280;64418;47.536;19.074;2024-03-23T08:05:13;99685.69;;;12.55;100.00
75794;BME280;64418;47.536;19.074;2024-03-23T08:07:39;99688.19;;;12.57;100.00
75794;BME280;64418;47.536;19.074;2024-03-23T08:10:05;99684.38;;;12.57;100.00
75794;BME280;64418;47.536;19.074;2024-03-23T08:12:32;99677.66;;;12.60;100.00
75794;BME280;64418;47.536;19.074;2024-03-23T08:14:59;99678.00;;;12.87;100.00
75794;BME280;64418;47.536;19.074;2024-03-23T08:17:27;99678.34;;;12.90;100.00
75794;BME280;64418;47.536;19.074;2024-03-23T08:19:53;99677.91;;;13.33;100.00
75794;BME280;64418;47.536;19.074;2024-03-23T08:22:21;99675.25;;;13.50;100.00
75794;BME280;64418;47.536;19.074;2024-03-23T08:24:47;99665.00;;;13.69;99.39
75794;BME280;64418;47.536;19.074;2024-03-23T08:27:13;99670.81;;;13.89;98.32
75794;BME280;64418;47.536;19.074;2024-03-23T08:29:39;99665.87;;;13.86;97.95
75794;BME280;64418;47.536;19.074;2024-03-23T08:32:05;99665.09;;;13.74;98.22
75794;BME280;64418;47.536;19.074;2024-03-23T08:34:31;99665.72;;;14.09;97.56
75794;BME280;64418;47.536;19.074;2024-03-23T08:36:57;99659.09;;;14.05;96.74
75794;BME280;64418;47.536;19.074;2024-03-23T08:39:24;99656.97;;;14.07;96.79
75794;BME280;64418;47.536;19.074;2024-03-23T08:41:50;99646.59;;;14.04;96.91
75794;BME280;64418;47.536;19.074;2024-03-23T08:44:16;99642.94;;;14.15;96.59
75794;BME280;64418;47.536;19.074;2024-03-23T08:46:42;99643.09;;;14.59;94.41
75794;BME280;64418;47.536;19.074;2024-03-23T08:49:09;99644.63;;;14.50;93.61
75794;BME280;64418;47.536;19.074;2024-03-23T08:51:35;99645.06;;;14.80;92.07
75794;BME280;64418;47.536;19.074;2024-03-23T08:54:01;99629.88;;;14.89;91.55
75794;BME280;64418;47.536;19.074;2024-03-23T08:56:28;99631.84;;;15.59;86.58
75794;BME280;64418;47.536;19.074;2024-03-23T08:58:55;99630.63;;;16.03;83.47
75794;BME280;64418;47.536;19.074;2024-03-23T09:01:20;99640.78;;;16.45;81.65
75794;BME280;64418;47.536;19.074;2024-03-23T09:03:46;99639.03;;;16.28;80.96
75794;BME280;64418;47.536;19.074;2024-03-23T09:06:14;99636.41;;;16.44;79.46
75794;BME280;64418;47.536;19.074;2024-03-23T09:08:40;99626.47;;;16.32;80.33
75794;BME280;64418;47.536;19.074;2024-03-23T09:11:08;99622.78;;;16.49;80.34
75794;BME280;64418;47.536;19.074;2024-03-23T09:13:36;99612.00;;;17.31;76.96
75794;BME280;64418;47.536;19.074;2024-03-23T09:16:04;99616.00;;;18.16;70.30
75794;BME280;64418;47.536;19.074;2024-03-23T09:18:32;99617.91;;;18.25;69.53
75794;BME280;64418;47.536;19.074;2024-03-23T09:20:58;99600.34;;;18.42;67.34
75794;BME280;64418;47.536;19.074;2024-03-23T09:23:24;99600.91;;;18.39;67.84
75794;BME280;64418;47.536;19.074;2024-03-23T09:25:50;99597.87;;;18.10;69.52
75794;BME280;64418;47.536;19.074;2024-03-23T09:28:17;99589.94;;;17.88;70.45
75794;BME280;64418;47.536;19.074;2024-03-23T09:30:45;99586.88;;;17.54;71.97
75794;BME280;64418;47.536;19.074;2024-03-23T09:33:11;99581.31;;;18.91;66.89
75794;BME280;64418;47.536;19.074;2024-03-23T09:35:39;99586.47;;;19.02;63.66
75794;BME280;64418;47.536;19.074;2024-03-23T09:38:05;99586.84;;;19.35;62.62
75794;BME280;64418;47.536;19.074;2024-03-23T09:40:32;99573.06;;;20.75;57.04
75794;BME280;64418;47.536;19.074;2024-03-23T09:42:59;99566.06;;;20.88;55.47
75794;BME280;64418;47.536;19.074;2024-03-23T09:45:28;99562.81;;;20.57;56.90
75794;BME280;64418;47.536;19.074;2024-03-23T09:47:57;99561.00;;;20.13;57.19
75794;BME280;64418;47.536;19.074;2024-03-23T09:50:23;99566.63;;;20.03;57.34
75794;BME280;64418;47.536;19.074;2024-03-23T09:52:49;99555.50;;;19.46;59.85
75794;BME280;64418;47.536;19.074;2024-03-23T09:55:16;99550.06;;;19.36;60.57
75794;BME280;64418;47.536;19.074;2024-03-23T09:57:43;99550.13;;;19.26;61.49
75794;BME280;64418;47.536;19.074;2024-03-23T10:00:09;99539.16;;;19.15;61.82
75794;BME280;64418;47.536;19.074;2024-03-23T10:02:37;99528.22;;;19.10;62.04
75794;BME280;64418;47.536;19.074;2024-03-23T10:05:20;99535.16;;;19.52;61.00
75794;BME280;64418;47.536;19.074;2024-03-23T10:07:48;99526.63;;;20.16;58.05
75794;BME280;64418;47.536;19.074;2024-03-23T10:10:16;99519.94;;;20.98;55.38
75794;BME280;64418;47.536;19.074;2024-03-23T10:12:44;99519.09;;;21.40;52.58
75794;BME280;64418;47.536;19.074;2024-03-23T10:15:17;99517.88;;;22.16;50.21
75794;BME280;64418;47.536;19.074;2024-03-23T10:17:44;99505.66;;;22.90;47.76
75794;BME280;64418;47.536;19.074;2024-03-23T10:20:12;99498.03;;;23.59;45.79
75794;BME280;64418;47.536;19.074;2024-03-23T10:22:38;99509.00;;;22.60;44.87
75794;BME280;64418;47.536;19.074;2024-03-23T10:25:08;99487.28;;;21.48;45.53
75794;BME280;64418;47.536;19.074;2024-03-23T10:27:34;99501.19;;;21.56;45.21
75794;BME280;64418;47.536;19.074;2024-03-23T10:30:08;99498.22;;;22.77;43.07
75794;BME280;64418;47.536;19.074;2024-03-23T10:32:35;99485.09;;;22.83;42.47
75794;BME280;64418;47.536;19.074;2024-03-23T10:35:18;99489.25;;;22.26;43.78
75794;BME280;64418;47.536;19.074;2024-03-23T10:37:45;99492.00;;;22.12;43.62
75794;BME280;64418;47.536;19.074;2024-03-23T10:40:12;99488.09;;;21.48;45.98
75794;BME280;64418;47.536;19.074;2024-03-23T10:42:38;99473.50;;;21.80;45.33
75794;BME280;64418;47.536;19.074;2024-03-23T10:45:06;99474.41;;;21.25;44.70
75794;BME280;64418;47.536;19.074;2024-03-23T10:47:35;99467.34;;;21.19;45.15
75794;BME280;64418;47.536;19.074;2024-03-23T10:50:02;99465.81;;;20.46;46.11
75794;BME280;64418;47.536;19.074;2024-03-23T10:52:30;99456.03;;;20.35;46.57
75794;BME280;64418;47.536;19.074;2024-03-23T10:54:56;99441.19;;;20.55;46.77
75794;BME280;64418;47.536;19.074;2024-03-23T10:57:26;99440.34;;;20.78;46.29
75794;BME280;64418;47.536;19.074;2024-03-23T10:59:56;99442.06;;;20.93;45.50
75794;BME280;64418;47.536;19.074;2024-03-23T11:02:22;99433.28;;;20.72;45.80
75794;BME280;64418;47.536;19.074;2024-03-23T11:04:51;99436.69;;;21.39;44.48
75794;BME280;64418;47.536;19.074;2024-03-23T11:07:33;99424.13;;;22.52;42.15
75794;BME280;64418;47.536;19.074;2024-03-23T11:09:59;99417.47;;;23.16;40.78
75794;BME280;64418;47.536;19.074;2024-03-23T11:12:29;99421.16;;;24.31;38.81
75794;BME280;64418;47.536;19.074;2024-03-23T11:14:59;99414.09;;;24.17;37.97
75794;BME280;64418;47.536;19.074;2024-03-23T11:17:28;99405.50;;;25.35;36.05
75794;BME280;64418;47.536;19.074;2024-03-23T11:19:56;99397.16;;;24.83;36.37
75794;BME280;64418;47.536;19.074;2024-03-23T11:22:41;99399.09;;;24.74;35.40
75794;BME280;64418;47.536;19.074;2024-03-23T11:25:17;99393.59;;;23.65;36.73
75794;BME280;64418;47.536;19.074;2024-03-23T11:27:44;99392.22;;;24.46;35.40
75794;BME280;64418;47.536;19.074;2024-03-23T11:30:16;99377.69;;;24.01;35.63
75794;BME280;64418;47.536;19.074;2024-03-23T11:32:46;99395.94;;;24.11;36.70
75794;BME280;64418;47.536;19.074;2024-03-23T11:35:26;99384.84;;;22.82;39.06
75794;BME280;64418;47.536;19.074;2024-03-23T11:38:05;99368.63;;;23.47;37.75
75794;BME280;64418;47.536;19.074;2024-03-23T11:40:31;99364.12;;;24.30;36.02
75794;BME280;64418;47.536;19.074;2024-03-23T11:42:58;99360.53;;;25.04;34.40
75794;BME280;64418;47.536;19.074;2024-03-23T11:45:26;99356.22;;;24.63;34.37
75794;BME280;64418;47.536;19.074;2024-03-23T11:48:03;99342.53;;;24.10;34.74
75794;BME280;64418;47.536;19.074;2024-03-23T11:50:30;99336.31;;;24.44;34.60
75794;BME280;64418;47.536;19.074;2024-03-23T11:53:15;99346.13;;;24.50;34.30
75794;BME280;64418;47.536;19.074;2024-03-23T11:55:47;99341.53;;;23.97;35.23
75794;BME280;64418;47.536;19.074;2024-03-23T11:58:14;99328.41;;;22.97;36.90
75794;BME280;64418;47.536;19.074;2024-03-23T12:00:41;99334.09;;;22.42;38.01
75794;BME280;64418;47.536;19.074;2024-03-23T12:03:12;99319.78;;;21.72;39.40
75794;BME280;64418;47.536;19.074;2024-03-23T12:05:41;99334.38;;;21.59;40.08
75794;BME280;64418;47.536;19.074;2024-03-23T12:08:22;99318.13;;;21.57;40.15
75794;BME280;64418;47.536;19.074;2024-03-23T12:10:51;99311.50;;;21.12;40.86
75794;BME280;64418;47.536;19.074;2024-03-23T12:13:18;99325.13;;;20.85;41.31
75794;BME280;64418;47.536;19.074;2024-03-23T12:15:46;99307.59;;;20.44;42.06
75794;BME280;64418;47.536;19.074;2024-03-23T12:18:13;99294.63;;;20.26;42.46
75794;BME280;64418;47.536;19.074;2024-03-23T12:20:39;99291.38;;;20.24;42.27
75794;BME280;64418;47.536;19.074;2024-03-23T12:23:10;99287.19;;;20.07;42.71
75794;BME280;64418;47.536;19.074;2024-03-23T12:25:40;99247.34;;;19.86;42.62
75794;BME280;64418;47.536;19.074;2024-03-23T12:28:06;99280.53;;;19.90;42.92
75794;BME280;64418;47.536;19.074;2024-03-23T12:30:38;99275.88;;;19.90;42.77
75794;BME280;64418;47.536;19.074;2024-03-23T12:33:05;99277.72;;;19.95;42.58
75794;BME280;64418;47.536;19.074;2024-03-23T12:35:31;99270.37;;;19.90;42.32
75794;BME280;64418;47.536;19.074;2024-03-23T12:37:57;99254.34;;;19.74;42.39
75794;BME280;64418;47.536;19.074;2024-03-23T12:40:22;99260.03;;;19.82;42.18
75794;BME280;64418;47.536;19.074;2024-03-23T12:42:51;99259.94;;;19.87;42.04
75794;BME280;64418;47.536;19.074;2024-03-23T12:45:17;99259.75;;;20.02;41.94
75794;BME280;64418;47.536;19.074;2024-03-23T12:47:44;99254.44;;;19.87;42.29
75794;BME280;64418;47.536;19.074;2024-03-23T12:50:10;99243.38;;;19.92;42.40
75794;BME280;64418;47.536;19.074;2024-03-23T12:52:37;99240.13;;;19.90;42.40
75794;BME280;64418;47.536;19.074;2024-03-23T12:55:04;99243.44;;;19.87;42.04
75794;BME280;64418;47.536;19.074;2024-03-23T12:57:30;99230.06;;;19.81;42.23
75794;BME280;64418;47.536;19.074;2024-03-23T12:59:57;99223.50;;;19.58;42.32
75794;BME280;64418;47.536;19.074;2024-03-23T13:02:23;99222.91;;;19.61;42.40
75794;BME280;64418;47.536;19.074;2024-03-23T13:04:49;99227.94;;;19.54;42.59
75794;BME280;64418;47.536;19.074;2024-03-23T13:07:16;99221.97;;;19.47;42.93
75794;BME280;64418;47.536;19.074;2024-03-23T13:09:43;99213.22;;;19.45;43.10
75794;BME280;64418;47.536;19.074;2024-03-23T13:12:08;99213.28;;;19.35;43.39
75794;BME280;64418;47.536;19.074;2024-03-23T13:14:35;99208.66;;;19.30;43.38
75794;BME280;64418;47.536;19.074;2024-03-23T13:17:03;99206.28;;;19.23;43.37
75794;BME280;64418;47.536;19.074;2024-03-23T13:19:30;99201.59;;;19.24;43.27
75794;BME280;64418;47.536;19.074;2024-03-23T13:21:56;99204.72;;;19.17;43.35
75794;BME280;64418;47.536;19.074;2024-03-23T13:24:22;99196.25;;;19.14;43.07
75794;BME280;64418;47.536;19.074;2024-03-23T13:26:50;99193.78;;;19.12;43.08
75794;BME280;64418;47.536;19.074;2024-03-23T13:29:15;99199.84;;;19.09;43.13
75794;BME280;64418;47.536;19.074;2024-03-23T13:31:41;99193.53;;;19.09;43.05
75794;BME280;64418;47.536;19.074;2024-03-23T13:34:09;99187.78;;;19.10;42.99
75794;BME280;64418;47.536;19.074;2024-03-23T13:36:37;99187.00;;;19.05;43.03
75794;BME280;64418;47.536;19.074;2024-03-23T13:39:12;99173.06;;;18.96;43.30
75794;BME280;64418;47.536;19.074;2024-03-23T13:41:47;99190.09;;;18.98;43.23